sensor_id;sensor_type;location;lat;lon;timestamp;P1;durP1;ratioP1;P2;durP2;ratioP2
325;SDS011;150;52.352;14.058;2023-01-28T00:01:17;5.20;;;3.13;;
325;SDS011;150;52.352;14.058;2023-01-28T00:03:48;6.95;;;3.13;;
325;SDS011;150;52.352;14.058;2023-01-28T00:06:19;3.53;;;2.72;;
325;SDS011;150;52.352;14.058;2023-01-28T00:08:46;5.95;;;2.50;;
325;SDS011;150;52.352;14.058;2023-01-28T00:11:13;6.57;;;3.05;;
325;SDS011;150;52.352;14.058;2023-01-28T00:13:40;5.45;;;3.50;;
325;SDS011;150;52.352;14.058;2023-01-28T00:16:07;5.70;;;2.65;;
325;SDS011;150;52.352;14.058;2023-01-28T00:18:36;3.20;;;2.40;;
325;SDS011;150;52.352;14.058;2023-01-28T00:21:06;3.53;;;2.13;;
325;SDS011;150;52.352;14.058;2023-01-28T00:23:36;5.60;;;2.30;;
325;SDS011;150;52.352;14.058;2023-01-28T00:26:05;3.58;;;2.90;;
325;SDS011;150;52.352;14.058;2023-01-28T00:28:33;5.60;;;2.50;;
325;SDS011;150;52.352;14.058;2023-01-28T00:31:04;4.75;;;3.10;;
325;SDS011;150;52.352;14.058;2023-01-28T00:33:31;4.35;;;2.85;;
325;SDS011;150;52.352;14.058;2023-01-28T00:35:58;5.38;;;3.25;;
325;SDS011;150;52.352;14.058;2023-01-28T00:38:26;6.00;;;3.10;;
325;SDS011;150;52.352;14.058;2023-01-28T00:40:54;6.40;;;3.00;;
325;SDS011;150;52.352;14.058;2023-01-28T00:43:21;5.65;;;3.33;;
325;SDS011;150;52.352;14.058;2023-01-28T00:45:48;4.68;;;2.92;;
325;SDS011;150;52.352;14.058;2023-01-28T00:48:14;4.97;;;2.67;;
325;SDS011;150;52.352;14.058;2023-01-28T00:50:41;11.25;;;8.35;;
325;SDS011;150;52.352;14.058;2023-01-28T00:53:09;10.88;;;8.35;;
325;SDS011;150;52.352;14.058;2023-01-28T00:55:36;4.78;;;3.75;;
325;SDS011;150;52.352;14.058;2023-01-28T00:58:10;5.70;;;3.60;;
325;SDS011;150;52.352;14.058;2023-01-28T01:00:37;6.57;;;3.13;;
325;SDS011;150;52.352;14.058;2023-01-28T01:03:04;5.60;;;3.60;;
325;SDS011;150;52.352;14.058;2023-01-28T01:05:30;4.30;;;2.90;;
325;SDS011;150;52.352;14.058;2023-01-28T01:07:57;2.92;;;2.05;;
325;SDS011;150;52.352;14.058;2023-01-28T01:10:24;6.15;;;2.95;;
325;SDS011;150;52.352;14.058;2023-01-28T01:12:51;5.10;;;3.03;;
325;SDS011;150;52.352;14.058;2023-01-28T01:15:19;5.47;;;2.88;;
325;SDS011;150;52.352;14.058;2023-01-28T01:17:47;5.97;;;3.10;;
325;SDS011;150;52.352;14.058;2023-01-28T01:20:15;5.55;;;2.53;;
325;SDS011;150;52.352;14.058;2023-01-28T01:22:45;4.50;;;3.00;;
325;SDS011;150;52.352;14.058;2023-01-28T01:25:12;7.22;;;2.60;;
325;SDS011;150;52.352;14.058;2023-01-28T01:27:40;4.70;;;2.83;;
325;SDS011;150;52.352;14.058;2023-01-28T01:30:08;4.35;;;2.88;;
325;SDS011;150;52.352;14.058;2023-01-28T01:32:37;5.55;;;3.00;;
325;SDS011;150;52.352;14.058;2023-01-28T01:35:06;5.53;;;3.37;;
325;SDS011;150;52.352;14.058;2023-01-28T01:37:35;3.92;;;2.67;;
325;SDS011;150;52.352;14.058;2023-01-28T01:40:02;4.85;;;2.67;;
325;SDS011;150;52.352;14.058;2023-01-28T01:42:33;7.00;;;3.30;;
325;SDS011;150;52.352;14.058;2023-01-28T01:45:01;4.63;;;2.72;;
325;SDS011;150;52.352;14.058;2023-01-28T01:47:31;5.20;;;2.47;;
325;SDS011;150;52.352;14.058;2023-01-28T01:50:05;4.97;;;2.73;;
325;SDS011;150;52.352;14.058;2023-01-28T01:52:49;3.33;;;2.20;;
325;SDS011;150;52.352;14.058;2023-01-28T01:55:20;4.17;;;2.67;;
325;SDS011;150;52.352;14.058;2023-01-28T01:57:59;4.97;;;3.10;;
325;SDS011;150;52.352;14.058;2023-01-28T02:00:58;4.85;;;2.70;;
325;SDS011;150;52.352;14.058;2023-01-28T02:03:35;4.97;;;2.55;;
325;SDS011;150;52.352;14.058;2023-01-28T02:06:19;5.18;;;2.72;;
325;SDS011;150;52.352;14.058;2023-01-28T02:08:59;4.80;;;2.75;;
325;SDS011;150;52.352;14.058;2023-01-28T02:12:10;7.68;;;2.90;;
325;SDS011;150;52.352;14.058;2023-01-28T02:14:50;5.65;;;3.58;;
325;SDS011;150;52.352;14.058;2023-01-28T02:17:31;8.00;;;2.58;;
325;SDS011;150;52.352;14.058;2023-01-28T02:20:13;5.00;;;2.53;;
325;SDS011;150;52.352;14.058;2023-01-28T02:23:10;6.32;;;2.80;;
325;SDS011;150;52.352;14.058;2023-01-28T02:26:09;5.70;;;2.45;;
325;SDS011;150;52.352;14.058;2023-01-28T02:32:19;5.30;;;2.70;;
325;SDS011;150;52.352;14.058;2023-01-28T02:37:41;5.85;;;2.88;;
325;SDS011;150;52.352;14.058;2023-01-28T02:38:02;5.53;;;2.85;;
325;SDS011;150;52.352;14.058;2023-01-28T02:40:47;2.75;;;2.45;;
325;SDS011;150;52.352;14.058;2023-01-28T02:43:34;5.18;;;2.53;;
325;SDS011;150;52.352;14.058;2023-01-28T02:46:32;5.10;;;2.78;;
325;SDS011;150;52.352;14.058;2023-01-28T02:49:24;3.85;;;2.60;;
325;SDS011;150;52.352;14.058;2023-01-28T02:55:24;3.63;;;2.42;;
325;SDS011;150;52.352;14.058;2023-01-28T03:00:54;6.90;;;4.70;;
325;SDS011;150;52.352;14.058;2023-01-28T03:03:48;5.63;;;3.67;;
325;SDS011;150;52.352;14.058;2023-01-28T03:07:06;5.72;;;3.22;;
325;SDS011;150;52.352;14.058;2023-01-28T03:09:44;5.07;;;2.78;;
325;SDS011;150;52.352;14.058;2023-01-28T03:12:25;4.95;;;2.92;;
325;SDS011;150;52.352;14.058;2023-01-28T03:15:22;4.32;;;2.55;;
325;SDS011;150;52.352;14.058;2023-01-28T03:18:23;3.45;;;2.17;;
325;SDS011;150;52.352;14.058;2023-01-28T03:21:23;4.40;;;2.60;;
325;SDS011;150;52.352;14.058;2023-01-28T03:24:49;4.07;;;2.10;;
325;SDS011;150;52.352;14.058;2023-01-28T03:31:08;3.05;;;2.30;;
325;SDS011;150;52.352;14.058;2023-01-28T03:34:15;4.32;;;2.40;;
325;SDS011;150;52.352;14.058;2023-01-28T03:37:15;6.25;;;2.60;;
325;SDS011;150;52.352;14.058;2023-01-28T03:39:51;4.88;;;2.40;;
325;SDS011;150;52.352;14.058;2023-01-28T03:42:32;4.85;;;2.55;;
325;SDS011;150;52.352;14.058;2023-01-28T03:45:15;5.35;;;2.55;;
325;SDS011;150;52.352;14.058;2023-01-28T03:50:32;8.30;;;2.70;;
325;SDS011;150;52.352;14.058;2023-01-28T03:53:30;3.97;;;2.30;;
325;SDS011;150;52.352;14.058;2023-01-28T03:56:06;3.97;;;1.80;;
325;SDS011;150;52.352;14.058;2023-01-28T03:58:50;4.90;;;2.60;;
325;SDS011;150;52.352;14.058;2023-01-28T04:02:20;3.60;;;2.90;;
325;SDS011;150;52.352;14.058;2023-01-28T04:06:19;3.93;;;2.53;;
325;SDS011;150;52.352;14.058;2023-01-28T04:12:04;2.90;;;1.65;;
325;SDS011;150;52.352;14.058;2023-01-28T04:14:43;3.95;;;2.35;;
325;SDS011;150;52.352;14.058;2023-01-28T04:20:58;5.97;;;2.22;;
325;SDS011;150;52.352;14.058;2023-01-28T04:23:39;5.50;;;2.42;;
325;SDS011;150;52.352;14.058;2023-01-28T04:34:53;6.43;;;2.37;;
325;SDS011;150;52.352;14.058;2023-01-28T04:35:42;3.50;;;2.03;;
325;SDS011;150;52.352;14.058;2023-01-28T04:41:07;4.30;;;2.60;;
325;SDS011;150;52.352;14.058;2023-01-28T04:44:15;6.32;;;3.00;;
325;SDS011;150;52.352;14.058;2023-01-28T04:47:00;5.70;;;2.10;;
325;SDS011;150;52.352;14.058;2023-01-28T04:49:38;3.90;;;2.10;;
325;SDS011;150;52.352;14.058;2023-01-28T04:52:19;4.72;;;2.22;;
325;SDS011;150;52.352;14.058;2023-01-28T04:54:53;4.72;;;2.38;;
325;SDS011;150;52.352;14.058;2023-01-28T04:57:38;3.05;;;1.95;;
325;SDS011;150;52.352;14.058;2023-01-28T05:03:44;3.95;;;1.77;;
325;SDS011;150;52.352;14.058;2023-01-28T05:06:25;6.00;;;2.45;;
325;SDS011;150;52.352;14.058;2023-01-28T05:08:52;2.88;;;2.20;;
325;SDS011;150;52.352;14.058;2023-01-28T05:12:02;4.00;;;2.20;;
325;SDS011;150;52.352;14.058;2023-01-28T05:15:18;5.07;;;2.60;;
325;SDS011;150;52.352;14.058;2023-01-28T05:21:32;3.90;;;2.10;;
325;SDS011;150;52.352;14.058;2023-01-28T05:24:10;4.40;;;2.13;;
325;SDS011;150;52.352;14.058;2023-01-28T05:31:01;4.97;;;2.42;;
325;SDS011;150;52.352;14.058;2023-01-28T05:42:45;4.03;;;2.07;;
325;SDS011;150;52.352;14.058;2023-01-28T05:48:23;3.80;;;2.00;;
325;SDS011;150;52.352;14.058;2023-01-28T05:57:00;2.60;;;1.80;;
325;SDS011;150;52.352;14.058;2023-01-28T05:59:52;4.25;;;1.50;;
325;SDS011;150;52.352;14.058;2023-01-28T06:06:22;4.82;;;2.20;;
325;SDS011;150;52.352;14.058;2023-01-28T06:18:28;4.32;;;2.08;;
325;SDS011;150;52.352;14.058;2023-01-28T06:21:09;3.20;;;2.13;;
325;SDS011;150;52.352;14.058;2023-01-28T06:23:47;3.17;;;2.30;;
325;SDS011;150;52.352;14.058;2023-01-28T06:26:34;1.90;;;1.33;;
325;SDS011;150;52.352;14.058;2023-01-28T06:39:32;3.90;;;2.85;;
325;SDS011;150;52.352;14.058;2023-01-28T06:45:25;1.60;;;1.27;;
325;SDS011;150;52.352;14.058;2023-01-28T07:07:18;2.20;;;1.30;;
325;SDS011;150;52.352;14.058;2023-01-28T07:15:50;2.13;;;1.40;;
325;SDS011;150;52.352;14.058;2023-01-28T07:20:53;4.65;;;3.28;;
325;SDS011;150;52.352;14.058;2023-01-28T07:23:48;2.60;;;1.90;;
325;SDS011;150;52.352;14.058;2023-01-28T07:27:08;3.95;;;2.47;;
325;SDS011;150;52.352;14.058;2023-01-28T07:30:21;3.80;;;1.50;;
325;SDS011;150;52.352;14.058;2023-01-28T07:33:53;1.80;;;1.30;;
325;SDS011;150;52.352;14.058;2023-01-28T07:38:39;3.60;;;1.43;;
325;SDS011;150;52.352;14.058;2023-01-28T07:39:49;1.80;;;1.40;;
325;SDS011;150;52.352;14.058;2023-01-28T07:42:43;2.97;;;2.10;;
325;SDS011;150;52.352;14.058;2023-01-28T07:49:31;3.42;;;2.63;;
325;SDS011;150;52.352;14.058;2023-01-28T07:52:08;6.03;;;4.28;;
325;SDS011;150;52.352;14.058;2023-01-28T07:55:42;8.90;;;6.80;;
325;SDS011;150;52.352;14.058;2023-01-28T08:08:24;2.30;;;2.10;;
325;SDS011;150;52.352;14.058;2023-01-28T08:11:06;1.60;;;1.33;;
325;SDS011;150;52.352;14.058;2023-01-28T08:14:21;3.28;;;2.15;;
325;SDS011;150;52.352;14.058;2023-01-28T08:17:21;2.92;;;2.15;;
325;SDS011;150;52.352;14.058;2023-01-28T08:20:35;5.55;;;3.60;;
325;SDS011;150;52.352;14.058;2023-01-28T08:23:44;8.15;;;5.97;;
325;SDS011;150;52.352;14.058;2023-01-28T08:29:10;6.63;;;4.35;;
325;SDS011;150;52.352;14.058;2023-01-28T08:32:03;9.68;;;5.85;;
325;SDS011;150;52.352;14.058;2023-01-28T08:34:58;6.50;;;5.95;;
325;SDS011;150;52.352;14.058;2023-01-28T08:38:13;7.65;;;5.45;;
325;SDS011;150;52.352;14.058;2023-01-28T08:40:58;4.63;;;4.33;;
325;SDS011;150;52.352;14.058;2023-01-28T08:46:32;5.60;;;3.78;;
325;SDS011;150;52.352;14.058;2023-01-28T09:02:44;3.50;;;2.50;;
325;SDS011;150;52.352;14.058;2023-01-28T09:14:34;11.73;;;9.50;;
325;SDS011;150;52.352;14.058;2023-01-28T09:17:13;9.30;;;7.07;;
325;SDS011;150;52.352;14.058;2023-01-28T09:21:03;5.32;;;4.07;;
325;SDS011;150;52.352;14.058;2023-01-28T09:23:08;2.33;;;1.88;;
325;SDS011;150;52.352;14.058;2023-01-28T09:26:05;4.97;;;2.10;;
325;SDS011;150;52.352;14.058;2023-01-28T09:28:36;2.85;;;2.10;;
325;SDS011;150;52.352;14.058;2023-01-28T09:31:28;2.65;;;1.80;;
325;SDS011;150;52.352;14.058;2023-01-28T09:40:00;6.70;;;2.45;;
325;SDS011;150;52.352;14.058;2023-01-28T09:46:13;2.00;;;1.23;;
325;SDS011;150;52.352;14.058;2023-01-28T09:49:28;2.50;;;2.20;;
325;SDS011;150;52.352;14.058;2023-01-28T09:53:02;2.22;;;1.42;;
325;SDS011;150;52.352;14.058;2023-01-28T10:04:53;4.15;;;2.28;;
325;SDS011;150;52.352;14.058;2023-01-28T10:11:23;3.67;;;2.03;;
325;SDS011;150;52.352;14.058;2023-01-28T10:18:07;3.08;;;1.77;;
325;SDS011;150;52.352;14.058;2023-01-28T10:24:17;4.50;;;2.00;;
325;SDS011;150;52.352;14.058;2023-01-28T10:27:16;2.70;;;1.80;;
325;SDS011;150;52.352;14.058;2023-01-28T10:30:20;2.17;;;1.60;;
325;SDS011;150;52.352;14.058;2023-01-28T10:33:29;4.82;;;2.00;;
325;SDS011;150;52.352;14.058;2023-01-28T10:36:11;4.45;;;2.10;;
325;SDS011;150;52.352;14.058;2023-01-28T10:39:01;1.85;;;1.33;;
325;SDS011;150;52.352;14.058;2023-01-28T10:41:45;2.67;;;1.60;;
325;SDS011;150;52.352;14.058;2023-01-28T10:44:24;4.50;;;1.90;;
325;SDS011;150;52.352;14.058;2023-01-28T10:47:43;3.55;;;1.90;;
325;SDS011;150;52.352;14.058;2023-01-28T10:50:21;5.43;;;2.63;;
325;SDS011;150;52.352;14.058;2023-01-28T10:53:17;3.03;;;1.40;;
325;SDS011;150;52.352;14.058;2023-01-28T10:56:10;4.57;;;1.55;;
325;SDS011;150;52.352;14.058;2023-01-28T10:58:56;2.40;;;1.60;;
325;SDS011;150;52.352;14.058;2023-01-28T11:01:52;2.97;;;1.80;;
325;SDS011;150;52.352;14.058;2023-01-28T11:04:30;3.50;;;1.98;;
325;SDS011;150;52.352;14.058;2023-01-28T11:07:25;3.35;;;2.20;;
325;SDS011;150;52.352;14.058;2023-01-28T11:13:21;2.80;;;1.43;;
325;SDS011;150;52.352;14.058;2023-01-28T11:16:16;11.50;;;5.87;;
325;SDS011;150;52.352;14.058;2023-01-28T11:21:56;3.72;;;1.40;;
325;SDS011;150;52.352;14.058;2023-01-28T11:24:50;2.90;;;1.20;;
325;SDS011;150;52.352;14.058;2023-01-28T11:30:32;3.88;;;2.20;;
325;SDS011;150;52.352;14.058;2023-01-28T11:33:13;2.73;;;1.93;;
325;SDS011;150;52.352;14.058;2023-01-28T11:35:53;2.35;;;1.52;;
325;SDS011;150;52.352;14.058;2023-01-28T11:38:31;2.95;;;1.40;;
325;SDS011;150;52.352;14.058;2023-01-28T11:41:12;2.60;;;1.70;;
325;SDS011;150;52.352;14.058;2023-01-28T11:44:04;1.33;;;1.05;;
325;SDS011;150;52.352;14.058;2023-01-28T11:47:06;3.43;;;1.13;;
325;SDS011;150;52.352;14.058;2023-01-28T11:50:05;3.13;;;1.20;;
325;SDS011;150;52.352;14.058;2023-01-28T11:53:15;2.92;;;1.10;;
325;SDS011;150;52.352;14.058;2023-01-28T11:56:26;2.65;;;1.13;;
325;SDS011;150;52.352;14.058;2023-01-28T12:02:39;1.70;;;1.35;;
325;SDS011;150;52.352;14.058;2023-01-28T12:05:36;2.00;;;1.50;;
325;SDS011;150;52.352;14.058;2023-01-28T12:08:19;2.70;;;1.42;;
325;SDS011;150;52.352;14.058;2023-01-28T12:11:06;3.10;;;1.88;;
325;SDS011;150;52.352;14.058;2023-01-28T12:14:12;2.75;;;1.55;;
325;SDS011;150;52.352;14.058;2023-01-28T12:20:10;2.03;;;1.60;;
325;SDS011;150;52.352;14.058;2023-01-28T12:23:22;2.25;;;1.33;;
325;SDS011;150;52.352;14.058;2023-01-28T12:26:05;3.47;;;2.10;;
325;SDS011;150;52.352;14.058;2023-01-28T12:28:46;4.22;;;2.33;;
325;SDS011;150;52.352;14.058;2023-01-28T12:31:46;4.55;;;3.47;;
325;SDS011;150;52.352;14.058;2023-01-28T12:38:10;10.93;;;6.43;;
325;SDS011;150;52.352;14.058;2023-01-28T12:41:06;6.30;;;3.92;;
325;SDS011;150;52.352;14.058;2023-01-28T12:44:00;5.07;;;3.20;;
325;SDS011;150;52.352;14.058;2023-01-28T12:46:46;7.10;;;4.07;;
325;SDS011;150;52.352;14.058;2023-01-28T12:49:27;7.32;;;4.15;;
325;SDS011;150;52.352;14.058;2023-01-28T12:52:05;6.07;;;3.75;;
325;SDS011;150;52.352;14.058;2023-01-28T12:54:46;7.40;;;3.67;;
325;SDS011;150;52.352;14.058;2023-01-28T12:57:28;6.70;;;4.10;;
325;SDS011;150;52.352;14.058;2023-01-28T13:00:04;6.60;;;3.57;;
325;SDS011;150;52.352;14.058;2023-01-28T13:02:56;7.07;;;3.97;;
325;SDS011;150;52.352;14.058;2023-01-28T13:05:39;8.20;;;4.72;;
325;SDS011;150;52.352;14.058;2023-01-28T13:08:51;7.35;;;3.88;;
325;SDS011;150;52.352;14.058;2023-01-28T13:11:33;4.85;;;3.47;;
325;SDS011;150;52.352;14.058;2023-01-28T13:14:12;5.20;;;3.40;;
325;SDS011;150;52.352;14.058;2023-01-28T13:16:46;6.15;;;3.67;;
325;SDS011;150;52.352;14.058;2023-01-28T13:19:37;7.10;;;4.10;;
325;SDS011;150;52.352;14.058;2023-01-28T13:22:12;5.70;;;4.07;;
325;SDS011;150;52.352;14.058;2023-01-28T13:25:10;5.88;;;3.47;;
325;SDS011;150;52.352;14.058;2023-01-28T13:27:54;4.90;;;2.88;;
325;SDS011;150;52.352;14.058;2023-01-28T13:31:04;3.55;;;2.50;;
325;SDS011;150;52.352;14.058;2023-01-28T13:33:45;4.45;;;2.50;;
325;SDS011;150;52.352;14.058;2023-01-28T13:36:26;3.05;;;1.90;;
325;SDS011;150;52.352;14.058;2023-01-28T13:39:18;2.80;;;1.50;;
325;SDS011;150;52.352;14.058;2023-01-28T13:42:30;4.70;;;1.20;;
325;SDS011;150;52.352;14.058;2023-01-28T13:45:18;2.30;;;1.35;;
325;SDS011;150;52.352;14.058;2023-01-28T13:47:57;3.60;;;1.27;;
325;SDS011;150;52.352;14.058;2023-01-28T13:50:51;2.65;;;1.40;;
325;SDS011;150;52.352;14.058;2023-01-28T13:53:29;4.50;;;1.58;;
325;SDS011;150;52.352;14.058;2023-01-28T13:56:16;2.70;;;1.30;;
325;SDS011;150;52.352;14.058;2023-01-28T14:16:11;2.20;;;1.10;;
325;SDS011;150;52.352;14.058;2023-01-28T14:21:51;1.50;;;0.90;;
325;SDS011;150;52.352;14.058;2023-01-28T14:24:43;2.60;;;0.70;;
325;SDS011;150;52.352;14.058;2023-01-28T14:27:12;1.92;;;1.10;;
325;SDS011;150;52.352;14.058;2023-01-28T14:30:04;2.80;;;1.45;;
325;SDS011;150;52.352;14.058;2023-01-28T14:32:50;3.05;;;0.90;;
325;SDS011;150;52.352;14.058;2023-01-28T14:35:44;1.58;;;1.00;;
325;SDS011;150;52.352;14.058;2023-01-28T14:38:25;1.90;;;0.88;;
325;SDS011;150;52.352;14.058;2023-01-28T14:41:03;1.90;;;0.80;;
325;SDS011;150;52.352;14.058;2023-01-28T14:43:30;1.25;;;0.70;;
325;SDS011;150;52.352;14.058;2023-01-28T14:46:08;3.10;;;1.00;;
325;SDS011;150;52.352;14.058;2023-01-28T14:48:58;1.70;;;0.98;;
325;SDS011;150;52.352;14.058;2023-01-28T14:54:55;1.65;;;1.30;;
325;SDS011;150;52.352;14.058;2023-01-28T14:57:54;5.18;;;2.00;;
325;SDS011;150;52.352;14.058;2023-01-28T15:00:34;3.60;;;1.70;;
325;SDS011;150;52.352;14.058;2023-01-28T15:03:13;4.57;;;2.45;;
325;SDS011;150;52.352;14.058;2023-01-28T15:06:10;2.90;;;1.40;;
325;SDS011;150;52.352;14.058;2023-01-28T15:09:07;3.60;;;1.93;;
325;SDS011;150;52.352;14.058;2023-01-28T15:11:45;1.90;;;0.70;;
325;SDS011;150;52.352;14.058;2023-01-28T15:14:24;1.60;;;0.90;;
325;SDS011;150;52.352;14.058;2023-01-28T15:16:52;2.03;;;1.00;;
325;SDS011;150;52.352;14.058;2023-01-28T15:19:26;1.30;;;0.80;;
325;SDS011;150;52.352;14.058;2023-01-28T15:22:02;1.50;;;1.00;;
325;SDS011;150;52.352;14.058;2023-01-28T15:24:32;2.70;;;1.00;;
325;SDS011;150;52.352;14.058;2023-01-28T15:27:26;2.08;;;1.13;;
325;SDS011;150;52.352;14.058;2023-01-28T15:32:58;1.90;;;1.10;;
325;SDS011;150;52.352;14.058;2023-01-28T15:35:27;2.72;;;1.30;;
325;SDS011;150;52.352;14.058;2023-01-28T15:38:04;2.80;;;1.17;;
325;SDS011;150;52.352;14.058;2023-01-28T15:40:44;1.85;;;1.10;;
325;SDS011;150;52.352;14.058;2023-01-28T15:43:27;2.28;;;1.00;;
325;SDS011;150;52.352;14.058;2023-01-28T15:46:02;2.22;;;1.40;;
325;SDS011;150;52.352;14.058;2023-01-28T15:48:41;2.35;;;1.70;;
325;SDS011;150;52.352;14.058;2023-01-28T15:51:26;2.20;;;1.27;;
325;SDS011;150;52.352;14.058;2023-01-28T15:54:01;2.63;;;1.50;;
325;SDS011;150;52.352;14.058;2023-01-28T15:56:43;3.67;;;2.30;;
325;SDS011;150;52.352;14.058;2023-01-28T15:59:24;4.20;;;3.10;;
325;SDS011;150;52.352;14.058;2023-01-28T16:02:11;5.45;;;2.97;;
325;SDS011;150;52.352;14.058;2023-01-28T16:04:43;2.45;;;1.20;;
325;SDS011;150;52.352;14.058;2023-01-28T16:07:21;2.15;;;1.67;;
325;SDS011;150;52.352;14.058;2023-01-28T16:10:19;8.73;;;4.97;;
325;SDS011;150;52.352;14.058;2023-01-28T16:13:01;8.80;;;5.68;;
325;SDS011;150;52.352;14.058;2023-01-28T16:15:49;21.38;;;12.13;;
325;SDS011;150;52.352;14.058;2023-01-28T16:18:30;27.70;;;14.97;;
325;SDS011;150;52.352;14.058;2023-01-28T16:21:46;21.83;;;13.82;;
325;SDS011;150;52.352;14.058;2023-01-28T16:24:27;11.82;;;7.85;;
325;SDS011;150;52.352;14.058;2023-01-28T16:30:21;8.95;;;4.30;;
325;SDS011;150;52.352;14.058;2023-01-28T16:33:00;3.87;;;2.90;;
325;SDS011;150;52.352;14.058;2023-01-28T16:41:51;3.40;;;2.45;;
325;SDS011;150;52.352;14.058;2023-01-28T16:44:44;3.93;;;2.27;;
325;SDS011;150;52.352;14.058;2023-01-28T16:47:11;5.60;;;2.90;;
325;SDS011;150;52.352;14.058;2023-01-28T16:49:48;5.20;;;2.90;;
325;SDS011;150;52.352;14.058;2023-01-28T16:52:15;10.43;;;5.65;;
325;SDS011;150;52.352;14.058;2023-01-28T16:54:50;30.52;;;15.70;;
325;SDS011;150;52.352;14.058;2023-01-28T16:57:18;7.40;;;4.72;;
325;SDS011;150;52.352;14.058;2023-01-28T17:00:10;9.13;;;5.90;;
325;SDS011;150;52.352;14.058;2023-01-28T17:03:08;10.23;;;5.80;;
325;SDS011;150;52.352;14.058;2023-01-28T17:05:46;10.63;;;5.82;;
325;SDS011;150;52.352;14.058;2023-01-28T17:08:22;8.68;;;6.18;;
325;SDS011;150;52.352;14.058;2023-01-28T17:14:51;9.80;;;7.40;;
325;SDS011;150;52.352;14.058;2023-01-28T17:17:19;8.30;;;5.73;;
325;SDS011;150;52.352;14.058;2023-01-28T17:19:56;12.40;;;6.50;;
325;SDS011;150;52.352;14.058;2023-01-28T17:22:24;6.38;;;4.75;;
325;SDS011;150;52.352;14.058;2023-01-28T17:25:00;8.37;;;5.67;;
325;SDS011;150;52.352;14.058;2023-01-28T17:33:16;6.40;;;3.80;;
325;SDS011;150;52.352;14.058;2023-01-28T17:35:50;5.85;;;3.83;;
325;SDS011;150;52.352;14.058;2023-01-28T17:38:16;7.43;;;3.78;;
325;SDS011;150;52.352;14.058;2023-01-28T17:40:57;5.07;;;4.05;;
325;SDS011;150;52.352;14.058;2023-01-28T17:46:32;5.93;;;4.68;;
325;SDS011;150;52.352;14.058;2023-01-28T17:51:56;8.90;;;5.10;;
325;SDS011;150;52.352;14.058;2023-01-28T17:54:32;7.70;;;4.35;;
325;SDS011;150;52.352;14.058;2023-01-28T17:57:06;8.07;;;4.82;;
325;SDS011;150;52.352;14.058;2023-01-28T17:59:32;8.77;;;6.07;;
325;SDS011;150;52.352;14.058;2023-01-28T18:01:59;8.05;;;6.03;;
325;SDS011;150;52.352;14.058;2023-01-28T18:04:37;7.35;;;5.18;;
325;SDS011;150;52.352;14.058;2023-01-28T18:07:12;7.47;;;5.10;;
325;SDS011;150;52.352;14.058;2023-01-28T18:09:40;9.57;;;6.22;;
325;SDS011;150;52.352;14.058;2023-01-28T18:12:17;7.45;;;5.22;;
325;SDS011;150;52.352;14.058;2023-01-28T18:15:17;7.30;;;4.53;;
325;SDS011;150;52.352;14.058;2023-01-28T18:17:53;6.30;;;4.70;;
325;SDS011;150;52.352;14.058;2023-01-28T18:20:47;7.25;;;5.28;;
325;SDS011;150;52.352;14.058;2023-01-28T18:23:46;8.30;;;4.70;;
325;SDS011;150;52.352;14.058;2023-01-28T18:29:07;6.93;;;4.80;;
325;SDS011;150;52.352;14.058;2023-01-28T18:32:02;8.75;;;4.88;;
325;SDS011;150;52.352;14.058;2023-01-28T18:34:29;10.10;;;6.80;;
325;SDS011;150;52.352;14.058;2023-01-28T18:37:05;10.70;;;5.88;;
325;SDS011;150;52.352;14.058;2023-01-28T18:39:45;11.63;;;6.88;;
325;SDS011;150;52.352;14.058;2023-01-28T18:42:22;7.57;;;5.32;;
325;SDS011;150;52.352;14.058;2023-01-28T18:44:49;8.38;;;4.82;;
325;SDS011;150;52.352;14.058;2023-01-28T18:47:24;9.70;;;5.00;;
325;SDS011;150;52.352;14.058;2023-01-28T18:50:16;6.20;;;4.20;;
325;SDS011;150;52.352;14.058;2023-01-28T18:53:00;6.93;;;4.15;;
325;SDS011;150;52.352;14.058;2023-01-28T18:55:26;5.25;;;3.50;;
325;SDS011;150;52.352;14.058;2023-01-28T19:00:38;10.60;;;6.68;;
325;SDS011;150;52.352;14.058;2023-01-28T19:03:05;8.43;;;4.88;;
325;SDS011;150;52.352;14.058;2023-01-28T19:06:23;4.45;;;3.63;;
325;SDS011;150;52.352;14.058;2023-01-28T19:08:59;7.32;;;4.15;;
325;SDS011;150;52.352;14.058;2023-01-28T19:11:39;8.20;;;4.70;;
325;SDS011;150;52.352;14.058;2023-01-28T19:14:30;6.60;;;5.00;;
325;SDS011;150;52.352;14.058;2023-01-28T19:17:09;6.25;;;4.25;;
325;SDS011;150;52.352;14.058;2023-01-28T19:19:37;5.22;;;4.07;;
325;SDS011;150;52.352;14.058;2023-01-28T19:22:20;7.07;;;3.75;;
325;SDS011;150;52.352;14.058;2023-01-28T19:24:57;7.13;;;3.83;;
325;SDS011;150;52.352;14.058;2023-01-28T19:27:53;6.38;;;3.90;;
325;SDS011;150;52.352;14.058;2023-01-28T19:30:47;5.72;;;4.03;;
325;SDS011;150;52.352;14.058;2023-01-28T19:33:28;6.63;;;4.10;;
325;SDS011;150;52.352;14.058;2023-01-28T19:36:09;6.45;;;4.00;;
325;SDS011;150;52.352;14.058;2023-01-28T19:38:50;5.70;;;4.10;;
325;SDS011;150;52.352;14.058;2023-01-28T19:41:41;8.82;;;4.20;;
325;SDS011;150;52.352;14.058;2023-01-28T19:44:26;6.18;;;4.07;;
325;SDS011;150;52.352;14.058;2023-01-28T19:47:22;6.43;;;4.43;;
325;SDS011;150;52.352;14.058;2023-01-28T19:50:03;5.60;;;4.45;;
325;SDS011;150;52.352;14.058;2023-01-28T19:52:54;4.15;;;3.50;;
325;SDS011;150;52.352;14.058;2023-01-28T19:55:26;4.68;;;3.50;;
325;SDS011;150;52.352;14.058;2023-01-28T20:01:14;3.67;;;3.47;;
325;SDS011;150;52.352;14.058;2023-01-28T20:03:52;5.88;;;4.50;;
325;SDS011;150;52.352;14.058;2023-01-28T20:06:28;5.20;;;3.42;;
325;SDS011;150;52.352;14.058;2023-01-28T20:08:57;5.43;;;3.80;;
325;SDS011;150;52.352;14.058;2023-01-28T20:11:48;6.57;;;3.40;;
325;SDS011;150;52.352;14.058;2023-01-28T20:14:16;6.17;;;3.07;;
325;SDS011;150;52.352;14.058;2023-01-28T20:16:59;3.40;;;2.30;;
325;SDS011;150;52.352;14.058;2023-01-28T20:19:34;3.28;;;2.10;;
325;SDS011;150;52.352;14.058;2023-01-28T20:22:11;3.10;;;2.07;;
325;SDS011;150;52.352;14.058;2023-01-28T20:24:38;1.80;;;1.30;;
325;SDS011;150;52.352;14.058;2023-01-28T20:27:31;2.55;;;1.60;;
325;SDS011;150;52.352;14.058;2023-01-28T20:30:06;3.60;;;1.67;;
325;SDS011;150;52.352;14.058;2023-01-28T20:32:46;2.67;;;1.48;;
325;SDS011;150;52.352;14.058;2023-01-28T20:35:13;2.10;;;1.30;;
325;SDS011;150;52.352;14.058;2023-01-28T20:37:46;2.05;;;1.55;;
325;SDS011;150;52.352;14.058;2023-01-28T20:40:13;3.30;;;1.70;;
325;SDS011;150;52.352;14.058;2023-01-28T20:42:51;2.60;;;1.80;;
325;SDS011;150;52.352;14.058;2023-01-28T20:48:14;2.70;;;1.88;;
325;SDS011;150;52.352;14.058;2023-01-28T20:51:10;2.03;;;1.52;;
325;SDS011;150;52.352;14.058;2023-01-28T20:54:06;2.10;;;1.55;;
325;SDS011;150;52.352;14.058;2023-01-28T20:56:58;2.97;;;1.67;;
325;SDS011;150;52.352;14.058;2023-01-28T20:59:25;4.10;;;1.90;;
325;SDS011;150;52.352;14.058;2023-01-28T21:11:44;2.90;;;2.20;;
325;SDS011;150;52.352;14.058;2023-01-28T21:14:12;3.33;;;2.30;;
325;SDS011;150;52.352;14.058;2023-01-28T21:16:49;3.40;;;2.80;;
325;SDS011;150;52.352;14.058;2023-01-28T21:19:28;6.13;;;2.75;;
325;SDS011;150;52.352;14.058;2023-01-28T21:22:04;4.03;;;2.80;;
325;SDS011;150;52.352;14.058;2023-01-28T21:24:35;2.77;;;2.13;;
325;SDS011;150;52.352;14.058;2023-01-28T21:27:15;4.35;;;2.67;;
325;SDS011;150;52.352;14.058;2023-01-28T21:29:52;3.28;;;2.75;;
325;SDS011;150;52.352;14.058;2023-01-28T21:32:28;3.45;;;2.13;;
325;SDS011;150;52.352;14.058;2023-01-28T21:35:26;3.42;;;2.58;;
325;SDS011;150;52.352;14.058;2023-01-28T21:38:26;4.77;;;2.00;;
325;SDS011;150;52.352;14.058;2023-01-28T21:43:42;4.68;;;3.35;;
325;SDS011;150;52.352;14.058;2023-01-28T21:46:21;5.23;;;2.50;;
325;SDS011;150;52.352;14.058;2023-01-28T21:53:30;2.30;;;2.08;;
325;SDS011;150;52.352;14.058;2023-01-28T21:54:57;3.97;;;2.03;;
325;SDS011;150;52.352;14.058;2023-01-28T21:57:39;4.45;;;2.28;;